Date,TemperatureHighF,TemperatureAvgF,TemperatureLowF,DewpointHighF,DewpointAvgF,DewpointLowF,HumidityHigh,HumidityAvg,HumidityLow,PressureMaxIn,PressureMinIn,WindSpeedMaxMPH,WindSpeedAvgMPH,GustSpeedMaxMPH,PrecipitationSumIn
2013-5-1,79.9,61.2,45.9,49.8,45.2,36.0,87,59,30,30.06,29.71,10,4,17,0.00
2013-5-2,45.7,40.6,34.9,38.4,34.2,29.7,94,78,69,30.14,30.03,9,4,13,0.01
2013-5-3,43.3,38.1,32.9,42.8,36.9,29.5,99,96,81,30.04,29.82,5,2,9,0.00
2013-5-4,78.6,56.8,43.3,56.2,48.4,42.8,99,77,45,29.86,29.79,5,1,8,0.00
2013-5-5,81.9,59.8,40.1,52.7,45.4,39.8,99,66,29,29.88,29.80,5,1,8,0.00
2013-5-6,84.6,61.3,38.5,53.0,40.9,34.6,99,57,19,29.89,29.78,5,1,12,0.00
2013-5-7,87.3,63.1,38.3,50.2,39.4,31.5,97,52,15,29.87,29.77,6,1,9,0.00
2013-5-8,86.9,64.5,41.4,53.3,42.6,35.4,96,54,19,29.83,29.74,4,1,6,0.00
2013-5-9,64.0,56.4,48.0,59.1,53.1,47.6,99,89,71,29.77,29.69,8,1,10,0.71
2013-5-10,58.3,47.6,41.5,48.0,43.9,41.2,99,88,65,29.81,29.71,12,2,99,0.34
2013-5-11,58.3,48.5,41.9,50.1,35.8,22.1,99,66,27,29.85,29.59,11,4,22,0.02
2013-5-12,61.0,45.2,29.8,29.4,22.9,13.7,76,46,19,29.92,29.84,7,3,14,0.00
2013-5-13,70.7,50.4,24.8,35.9,26.6,19.2,90,47,15,29.95,29.63,6,2,9,0.00
2013-5-14,94.5,75.7,54.1,59.2,48.2,35.5,72,41,21,29.64,29.31,9,3,15,0.00
2013-5-15,82.8,69.6,51.1,57.8,43.3,35.0,80,42,20,29.67,29.36,8,3,13,0.00
2013-5-16,92.7,67.6,44.1,54.3,46.2,39.0,98,54,19,29.79,29.65,4,2,10,0.00
2013-5-17,62.1,54.9,48.6,54.7,47.0,34.7,99,77,40,29.91,29.77,5,2,8,0.56
2013-5-18,83.7,65.6,48.2,65.0,57.1,47.6,99,76,51,29.86,29.71,4,1,7,0.01
2013-5-19,90.0,72.1,55.0,66.3,60.6,54.2,99,71,41,29.73,29.44,8,2,11,0.00
2013-5-20,86.9,71.7,60.1,65.6,61.1,58.0,99,73,42,29.58,29.40,8,2,14,0.47
2013-5-21,82.4,68.6,57.9,63.0,58.8,54.8,96,73,42,29.51,29.38,6,2,10,0.00
2013-5-22,69.3,59.6,52.9,62.7,57.3,52.0,98,92,73,29.64,29.43,4,1,8,0.59
2013-5-23,70.9,54.9,38.7,52.1,43.4,28.8,99,72,24,30.11,29.64,6,2,10,0.15
2013-5-24,72.0,51.2,30.4,44.6,36.8,-13.3,99,65,25,30.25,30.08,4,1,6,0.01
2013-5-25,63.9,54.1,44.4,45.8,41.9,37.4,89,66,40,30.17,30.07,4,1,6,0.02
2013-5-26,69.1,54.0,40.3,54.4,45.0,37.7,98,75,33,30.11,29.94,5,1,8,0.08
2013-5-27,57.4,53.4,50.9,54.4,49.7,42.3,99,88,68,29.95,29.68,4,2,8,0.18
2013-5-28,65.5,56.5,50.9,60.9,54.9,50.6,99,95,83,29.69,29.51,2,0,3,0.06
2013-5-29,92.5,70.9,58.1,67.3,62.2,2.0,99,78,41,29.70,29.57,8,2,11,0.54
2013-5-30,87.8,70.7,61.5,73.6,66.0,59.6,99,86,52,29.68,29.47,7,2,12,0.38
2013-5-31,84.4,70.2,61.3,65.4,60.8,57.6,92,74,46,29.56,29.46,7,3,11,0.00